Home > Products > Valid Products > MTR

000
SAUS43 KABR 250758
MTR8D3
METAR K8D3 250756Z AUTO 26005KT 04/02 A2973 RMK AO1 SLP071 T00390022





000
SAUS43 KABR 250658
MTR8D3
METAR K8D3 250656Z AUTO 35005KT 03/02 A2973 RMK AO1 SLP073 T00330022





000
SAUS43 KABR 250557
MTR8D3
METAR K8D3 250556Z AUTO 30004KT 04/03 A2971 RMK AO1 SLP070 T00440028
10100 20022 401330022 51001





000
SAUS43 KABR 250457
MTR8D3
METAR K8D3 250456Z AUTO 22010KT 06/04 A2971 RMK AO1 SLP070 T00560039





000
SAUS43 KABR 250357
MTR8D3
METAR K8D3 250356Z AUTO 25005KT 04/04 A2972 RMK AO1 SLP076 T00440039





000
SAUS43 KABR 250257
MTR8D3
METAR K8D3 250256Z AUTO 21006KT 06/04 A2971 RMK AO1 SLP071 T00560044
53008





000
SAUS43 KABR 250157
MTR8D3
METAR K8D3 250156Z AUTO 00000KT 07/06 A2971 RMK AO1 SLP067 T00720056





000
SAUS43 KABR 250057
MTR8D3
METAR K8D3 250056Z AUTO 18005KT 09/07 A2969 RMK AO1 SLP061 T00940067





000
SAUS43 KABR 242357
MTR8D3
METAR K8D3 242356Z AUTO 09006KT 10/06 A2969 RMK AO1 SLP059 P0001
60007 T01000061 10133 20083 53002





000
SAUS43 KABR 242257
MTR8D3
METAR K8D3 242256Z AUTO 07010G15KT 12/07 A2967 RMK AO1 SLP053 P0003
T01170067





000
SAUS43 KABR 242157
MTR8D3
METAR K8D3 242156Z AUTO 00000KT 11/05 A2968 RMK AO1 SLP057 P0003
T01110050





000
SAUS43 KABR 242057
MTR8D3
METAR K8D3 242056Z AUTO VRB05KT 12/06 A2968 RMK AO1 SLP055 T01220061
58011





000
SAUS43 KABR 241957
MTR8D3
METAR K8D3 241956Z AUTO 08009KT 13/07 A2970 RMK AO1 SLP061 T01280072





000
SAUS43 KABR 241857
MTR8D3
METAR K8D3 241856Z AUTO VRB03KT 11/07 A2971 RMK AO1 SLP068 T01060072





000
SAUS43 KABR 241758
MTR8D3
METAR K8D3 241756Z AUTO 00000KT 08/06 A2971 RMK AO1 SLP070 60021
T00780061 10083 20039 55011





000
SAUS43 KABR 241657
MTR8D3
METAR K8D3 241656Z AUTO 00000KT 06/06 A2971 RMK AO1 SLP071 T00610056





000
SAUS43 KABR 241558
MTR8D3
METAR K8D3 241556Z AUTO 00000KT 04/04 A2972 RMK AO1 SLP075 P0002
T00440044





000
SAUS43 KABR 241457
MTR8D3
METAR K8D3 241456Z AUTO 12003KT 04/04 A2975 RMK AO1 SLP083 P0005
60019 T00440044 50007





000
SAUS43 KABR 241357
MTR8D3
METAR K8D3 241356Z AUTO 00000KT 04/04 A2976 RMK AO1 SLP087 P0006
T00440044





000
SAUS43 KABR 241257
MTR8D3
METAR K8D3 241256Z AUTO 13003KT 04/04 A2974 RMK AO1 SLP080 P0008
T00390039





000
SAUS43 KABR 241157
MTR8D3
METAR K8D3 241156Z AUTO 00000KT 04/03 A2973 RMK AO1 SLP076 P0006
60006 70018 T00440033 10050 20044 58003





000
SAUS43 KABR 241057
MTR8D3
METAR K8D3 241056Z AUTO 14003KT 04/04 A2973 RMK AO1 SLP078 T00440039





000
SAUS43 KABR 240957
MTR8D3
METAR K8D3 240956Z AUTO 16006KT 04/03 A2974 RMK AO1 SLP081 T00440033





000
SAUS43 KABR 240857
MTR8D3
METAR K8D3 240856Z AUTO 15007KT 04/03 A2974 RMK AO1 SLP079 T00440033
58010





000
SAUS43 KABR 240757
MTR8D3
METAR K8D3 240756Z AUTO 15008KT 05/04 A2975 RMK AO1 SLP084 T00500039





000
SAUS43 KABR 240657
MTR8D3
METAR K8D3 240656Z AUTO 15010KT 05/04 A2975 RMK AO1 SLP084 T00500039





000
SAUS43 KABR 240557
MTR8D3
METAR K8D3 240556Z AUTO 14011KT 05/03 A2977 RMK AO1 SLP089 T00500033
10056 20044 401000044 51008





000
SAUS43 KABR 240457
MTR8D3
METAR K8D3 240456Z AUTO 14013KT 05/03 A2976 RMK AO1 SLP088 T00500033





000
SAUS43 KABR 240357
MTR8D3
METAR K8D3 240356Z AUTO 15013KT 05/03 A2976 RMK AO1 SLP087 T00500033





000
SAUS43 KABR 240258
MTR8D3
METAR K8D3 240256Z AUTO 14016G23KT 05/03 A2974 RMK AO1 SLP080
T00500033 50003





000
SAUS43 KABR 240157
MTR8D3
METAR K8D3 240156Z AUTO 14017G23KT 05/03 A2975 RMK AO1 PK WND
15027/0132 SLP084 T00500033





000
SAUS43 KABR 240057
MTR8D3
METAR K8D3 240056Z AUTO 15019G24KT 06/03 A2974 RMK AO1 PK WND
14028/0038 SLP078 T00560028





000
SAUS43 KABR 232357
MTR8D3
METAR K8D3 232356Z AUTO 15017G26KT 06/03 A2973 RMK AO1 PK WND
14029/2329 SLP076 60003 T00560028 10061 20056 56014





000
SAUS43 KABR 232258
MTR8D3
METAR K8D3 232256Z AUTO 15017KT 06/03 A2975 RMK AO1 PK WND
15028/2215 SLP083 T00560033





000
SAUS43 KABR 232157
MTR8D3
METAR K8D3 232156Z AUTO 15021G31KT 06/03 A2975 RMK AO1 PK WND
16031/2149 SLP082 T00560033





000
SAUS43 KABR 232057
MTR8D3
METAR K8D3 232056Z AUTO 16019G29KT 06/03 A2977 RMK AO1 PK WND
16033/2000 SLP090 P0001 60003 T00560033 55000





000
SAUS43 KABR 231957
MTR8D3
METAR K8D3 231956Z AUTO 16021G34KT 06/04 A2976 RMK AO1 PK WND
15037/1919 SLP086 T00610039





000
SAUS43 KABR 231857
MTR8D3
METAR K8D3 231856Z AUTO 15028G34KT 06/04 A2975 RMK AO1 PK WND
15034/1849 SLP080 P0002 T00610039





000
SAUS43 KABR 231757
MTR8D3
METAR K8D3 231756Z AUTO 15021G31KT 06/04 A2977 RMK AO1 PK WND
14031/1751 SLP088 P0001 60009 T00560039 10067 20056 58025





000
SAUS43 KABR 231658
MTR8D3
METAR K8D3 231656Z AUTO 15020G28KT 06/04 A2983 RMK AO1 PK WND
16032/1605 SLP107 P0001 T00560044





000
SAUS43 KABR 231558
MTR8D3
METAR K8D3 231556Z AUTO 16027G33KT 06/04 A2984 RMK AO1 PK WND
17033/1555 SLP111 P0001 T00610039





000
SAUS43 KABR 231501
MTR8D3
METAR K8D3 231456Z AUTO 15020KT 06/04 A2985 RMK AO1 SLP113 60006
T00610039 58014





000
SAUS43 KABR 231401
MTR8D3
METAR K8D3 231356Z AUTO 14018KT 06/04 A2988 RMK AO1 PK WND
14028/1300 SLP122 T00610039





000
SAUS43 KABR 231301
MTR8D3
METAR K8D3 231256Z AUTO 14022G29KT 06/04 A2989 RMK AO1 PK WND
14029/1255 SLP122 P0006 T00610044





000
SAUS43 KABR 231201
MTR8D3
METAR K8D3 231156Z AUTO 15016KT 06/04 A2989 RMK AO1 SLP124 60025
70025 T00610039 10100 20061 55011





000
SAUS43 KABR 231101
MTR8D3
METAR K8D3 231056Z AUTO 14016G26KT 06/04 A2989 RMK AO1 PK WND
15028/1037 SLP121 P0014 T00610044





000
SAUS43 KABR 231001
MTR8D3
METAR K8D3 230956Z AUTO 17013KT 07/04 A2992 RMK AO1 SLP130 P0007
T00670044





000
SAUS43 KABR 230901
MTR8D3
METAR K8D3 230856Z AUTO 17011KT 07/04 A2993 RMK AO1 SLP133 P0003
60004 T00720044 58003





000
SAUS43 KABR 230801
MTR8D3
METAR K8D3 230756Z AUTO 17013KT 08/04 A2993 RMK AO1 SLP132 P0001
T00780039





000
SAUS43 KABR 230701
MTR8D3
METAR K8D3 230656Z AUTO 18012KT 09/03 A2994 RMK AO1 SLP137 T00940028





000
SAUS43 KABR 230601
MTR8D3
METAR K8D3 230556Z AUTO 16011KT 09/03 A2994 RMK AO1 SLP135 T00940028
10156 20089 401781011 58008





000
SAUS43 KABR 230502
MTR8D3
METAR K8D3 230456Z AUTO 16008KT 09/03 A2994 RMK AO1 SLP138 T00890028





000
SAUS43 KABR 230401
MTR8D3
METAR K8D3 230356Z AUTO 16008KT 09/02 A2996 RMK AO1 SLP145 T00940022





000
SAUS43 KABR 230301
MTR8D3
METAR K8D3 230256Z AUTO 15013KT 12/02 A2996 RMK AO1 SLP144 T01170017
53005





000
SAUS43 KABR 230201
MTR8D3
METAR K8D3 230156Z AUTO 14013KT 13/01 A2995 RMK AO1 SLP141 T01280011





000
SAUS43 KABR 230101
MTR8D3
METAR K8D3 230056Z AUTO 14010KT 14/01 A2994 RMK AO1 SLP143 T01440006





000
SAUS43 KABR 230001
MTR8D3
METAR K8D3 222356Z AUTO 14014KT 16/00 A2995 RMK AO1 SLP147 T01560000
10178 20150 56015





000
SAUS43 KABR 222301
MTR8D3
METAR K8D3 222256Z AUTO 14012KT 17/M01 A2996 RMK AO1 SLP150
T01671006





000
SAUS43 KABR 222201
MTR8D3
METAR K8D3 222156Z AUTO 14009KT 17/M01 A2997 RMK AO1 SLP155
T01721011





000
SAUS43 KABR 222101
MTR8D3
METAR K8D3 222056Z AUTO 18012KT 17/M01 A2999 RMK AO1 SLP162
T01671006 56021





000
SAUS43 KABR 222001
MTR8D3
METAR K8D3 221956Z AUTO 14009KT 17/M01 A3001 RMK AO1 SLP168
T01721011





000
SAUS43 KABR 221901
MTR8D3
METAR K8D3 221856Z AUTO VRB06KT 16/M01 A3003 RMK AO1 SLP175
T01611006





000
SAUS43 KABR 221801
MTR8D3
METAR K8D3 221756Z AUTO 14011KT 16/00 A3006 RMK AO1 SLP183 T01560000
10161 20006 58021





000
SAUS43 KABR 221701
MTR8D3
METAR K8D3 221656Z AUTO 09003KT 16/M01 A3010 RMK AO1 SLP195
T01561006





000
SAUS43 KABR 221601
MTR8D3
METAR K8D3 221556Z AUTO VRB04KT 14/00 A3011 RMK AO1 SLP199 T01390000





000
SAUS43 KABR 221502
MTR8D3
METAR K8D3 221456Z AUTO 00000KT 12/00 A3012 RMK AO1 SLP204 T01220000
58002





000
SAUS43 KABR 221401
MTR8D3
METAR K8D3 221356Z AUTO 00000KT 09/03 A3013 RMK AO1 SLP209 T00890028





000
SAUS43 KABR 221301
MTR8D3
METAR K8D3 221256Z AUTO 00000KT 05/02 A3013 RMK AO1 SLP209 T00500022





000
SAUS43 KABR 221201
MTR8D3
METAR K8D3 221156Z AUTO 24003KT 00/M02 A3013 RMK AO1 SLP211
T00001017 10033 21011 55000





000
SAUS43 KABR 221101
MTR8D3
METAR K8D3 221056Z AUTO 26004KT 01/M01 A3012 RMK AO1 SLP206
T00111006





000
SAUS43 KABR 221001
MTR8D3
METAR K8D3 220956Z AUTO 27004KT M01/M02 A3013 RMK AO1 SLP211
T10061017





000
SAUS43 KABR 220901
MTR8D3
METAR K8D3 220856Z AUTO 26005KT 00/M02 A3013 RMK AO1 SLP210
T00001017 55000





    US Dept of Commerce
    National Oceanic and Atmospheric Administration
    National Weather Service
    1325 East West Highway
    Silver Spring, MD 20910
    Page Author: NWS Internet Services Team
Disclaimer
Information Quality
Credits
Glossary
Privacy Policy
Freedom of Information Act (FOIA)
About Us
Career Opportunities